Terminal Aerodrome Forecast
Issued by NWS

Home | Current Version | Previous Version | Text Only | Print | Product List | Glossary On
Versions: 1 2 3 4 5 6 7 8 9 10 11 12 13 14 15 16 17
000
FTUS42 TJSJ 301139
TAFIST
TAF
TIST 301139Z 3012/3112 08005KT P6SM SCT030
     FM301500 12013KT P6SM VCSH SCT025
     FM302300 09008KT P6SM VCSH SCT025 SCT040=

USA.gov is the U.S. government's official web portal to all federal, state and local government web resources and services.